Airfield :
LOGIN :

Register | Disclaimer

   EN    FR    IT 

 










Legend :    VFR   Marginal VFR   IFR   Intensive IFR   Very Intensive IFR
Visi :
Ceiling :
>= 8 km
>= 3000ft
5 to 8 km
1000 to 3000 ft
1500m to 5 km
500 to 1000 ft
800 to 1500m
200 to 500 ft
< 800m
< 200 ft
Symbols :   Thunderstorms  Fog  Heavy snow  Heavy precipitations  Wind > 20 kt
SIGMETs :     Misc.  Thunderstorms  Icing  Turbulence  Mountain Waves  Volcanic Ashes







- Airport Elevation : 160 ft
- IATA code : FMO


EDDG - Münster Osnabrück Int.

CURRENT METAR :
  • 300050Z 29009KT 270V330 9999 -TSRA SCT060CB BKN120 22/18 Q1011 TEMPO TSRA

EXPIRED METARs :
  • 300020Z 26004KT 220V280 9999 VCTS VCSH FEW060CB BKN300 21/18 Q1010 TEMPO TSRA
  • 292350Z 27003KT 240V310 9999 FEW050CB BKN300 22/18 Q1010 TEMPO TSRA
  • 292320Z 27003KT CAVOK 22/18 Q1010 NOSIG
  • 292250Z VRB02KT CAVOK 22/17 Q1010 NOSIG
  • 292220Z 33003KT 280V040 CAVOK 22/18 Q1010 NOSIG

TAF COR TAF EDDG
Valid from the 30 at 00:00 until the 31 at 00:00 UTC


292350Z 3000/3024 VRB03KT CAVOK
TEMPO 3000/3002 TSRA SCT050CB
BECMG 3007/3010 25012KT
BECMG 3010/3012 26015G25KT
PROB30
TEMPO 3012/3016 28020G35KT TSRA BKN030CB
BECMG 3017/3020 27009KT
No reported NOTAMs for that airfield.
1 SIGMET reported for the Langen FIR (EDGG) :
 
Embedded thunderstorms
EDGG SIGMET 1 VALID 292245/300230 EDZF
EDGG LANGEN FIR EMBD TS OBS WI N5003 E00916 - N4951 E01022 - N4750 E00843 - N4747 E00737 - N4916 E00825 - N5003 E00916 TOP FL360 MOV NE NC=



MET'MAP, your aeronautical weather chart ! - Copyright ORBIFLY December 2007 - Disclaimer

ORBIFLY MET'MAP TEAM :

Programming & Development : Alexandra Zaïnal
Concept & Development : Baudouin d'Aumeries
Co-Development & Prog : Marc-Olivier Méhu
Technical & hardware support : Manuel Goepfert

Contact : metmap@orbifly.com




SOURCES & CREDITS :

   NOAA